sensor_id;sensor_type;location;lat;lon;timestamp;temperature;humidity
32107;DHT22;18622;51.998;10.440;2022-10-29T07:05:38;16.20;99.90
32107;DHT22;18622;51.998;10.440;2022-10-29T07:08:06;16.20;99.90
32107;DHT22;18622;51.998;10.440;2022-10-29T07:10:34;16.30;99.90
32107;DHT22;18622;51.998;10.440;2022-10-29T07:13:03;16.30;99.90
32107;DHT22;18622;51.998;10.440;2022-10-29T07:20:33;16.60;99.90
32107;DHT22;18622;51.998;10.440;2022-10-29T07:23:01;16.60;99.90
32107;DHT22;18622;51.998;10.440;2022-10-29T07:25:29;16.70;99.90
32107;DHT22;18622;51.998;10.440;2022-10-29T07:30:37;16.80;99.90
32107;DHT22;18622;51.998;10.440;2022-10-29T07:33:05;16.80;99.90
32107;DHT22;18622;51.998;10.440;2022-10-29T07:35:33;16.90;99.90
32107;DHT22;18622;51.998;10.440;2022-10-29T07:38:03;17.00;99.90
32107;DHT22;18622;51.998;10.440;2022-10-29T07:40:31;17.10;99.90
32107;DHT22;18622;51.998;10.440;2022-10-29T07:42:59;17.20;99.90
32107;DHT22;18622;51.998;10.440;2022-10-29T07:45:27;17.30;99.90
32107;DHT22;18622;51.998;10.440;2022-10-29T07:48:00;17.50;99.90
32107;DHT22;18622;51.998;10.440;2022-10-29T07:50:28;17.60;99.90
32107;DHT22;18622;51.998;10.440;2022-10-29T07:52:58;17.70;99.90
32107;DHT22;18622;51.998;10.440;2022-10-29T07:55:27;17.90;99.90
32107;DHT22;18622;51.998;10.440;2022-10-29T07:57:56;18.00;99.90
32107;DHT22;18622;51.998;10.440;2022-10-29T08:00:25;18.10;99.90
32107;DHT22;18622;51.998;10.440;2022-10-29T08:02:54;18.10;99.90
32107;DHT22;18622;51.998;10.440;2022-10-29T08:05:22;18.20;99.90
32107;DHT22;18622;51.998;10.440;2022-10-29T08:07:52;18.30;99.90
32107;DHT22;18622;51.998;10.440;2022-10-29T08:10:21;18.40;99.90
32107;DHT22;18622;51.998;10.440;2022-10-29T08:12:55;18.60;99.90
32107;DHT22;18622;51.998;10.440;2022-10-29T08:15:23;18.70;99.90
32107;DHT22;18622;51.998;10.440;2022-10-29T08:17:50;18.80;99.90
32107;DHT22;18622;51.998;10.440;2022-10-29T08:20:19;19.00;99.90
32107;DHT22;18622;51.998;10.440;2022-10-29T08:22:47;19.10;99.90
32107;DHT22;18622;51.998;10.440;2022-10-29T08:25:15;19.20;99.90
32107;DHT22;18622;51.998;10.440;2022-10-29T08:27:43;19.30;99.90
32107;DHT22;18622;51.998;10.440;2022-10-29T08:30:12;19.50;99.90
32107;DHT22;18622;51.998;10.440;2022-10-29T08:32:46;19.80;99.90
32107;DHT22;18622;51.998;10.440;2022-10-29T08:35:14;20.10;99.90
32107;DHT22;18622;51.998;10.440;2022-10-29T08:37:43;20.40;99.90
32107;DHT22;18622;51.998;10.440;2022-10-29T08:40:21;20.70;99.80
32107;DHT22;18622;51.998;10.440;2022-10-29T08:43:01;21.10;99.00
32107;DHT22;18622;51.998;10.440;2022-10-29T08:45:47;21.40;98.10
32107;DHT22;18622;51.998;10.440;2022-10-29T08:51:21;21.60;96.80
32107;DHT22;18622;51.998;10.440;2022-10-29T08:53:53;21.70;96.60
32107;DHT22;18622;51.998;10.440;2022-10-29T08:56:29;21.80;96.40
32107;DHT22;18622;51.998;10.440;2022-10-29T08:59:06;21.80;96.00
32107;DHT22;18622;51.998;10.440;2022-10-29T09:01:35;21.90;95.80
32107;DHT22;18622;51.998;10.440;2022-10-29T09:04:37;22.00;95.30
32107;DHT22;18622;51.998;10.440;2022-10-29T09:09:33;22.20;94.70
32107;DHT22;18622;51.998;10.440;2022-10-29T09:12:03;22.40;94.40
32107;DHT22;18622;51.998;10.440;2022-10-29T09:17:42;22.60;94.50
32107;DHT22;18622;51.998;10.440;2022-10-29T09:26:16;22.90;93.00
32107;DHT22;18622;51.998;10.440;2022-10-29T09:31:48;23.10;92.40
32107;DHT22;18622;51.998;10.440;2022-10-29T09:34:37;23.20;92.30
32107;DHT22;18622;51.998;10.440;2022-10-29T09:37:09;23.40;92.00
32107;DHT22;18622;51.998;10.440;2022-10-29T09:39:36;23.50;91.20
32107;DHT22;18622;51.998;10.440;2022-10-29T09:42:14;23.50;91.00
32107;DHT22;18622;51.998;10.440;2022-10-29T09:50:29;23.40;91.40
32107;DHT22;18622;51.998;10.440;2022-10-29T09:52:53;23.30;91.20
32107;DHT22;18622;51.998;10.440;2022-10-29T09:55:31;23.20;91.10
32107;DHT22;18622;51.998;10.440;2022-10-29T09:57:57;23.00;91.40
32107;DHT22;18622;51.998;10.440;2022-10-29T10:00:27;22.90;91.40
32107;DHT22;18622;51.998;10.440;2022-10-29T10:05:57;22.60;91.70
32107;DHT22;18622;51.998;10.440;2022-10-29T10:08:25;22.50;91.80
32107;DHT22;18622;51.998;10.440;2022-10-29T10:11:06;22.50;91.90
32107;DHT22;18622;51.998;10.440;2022-10-29T10:13:37;22.40;91.90
32107;DHT22;18622;51.998;10.440;2022-10-29T10:16:05;22.40;92.10
32107;DHT22;18622;51.998;10.440;2022-10-29T10:18:41;22.50;92.20
32107;DHT22;18622;51.998;10.440;2022-10-29T10:21:29;22.60;92.20
32107;DHT22;18622;51.998;10.440;2022-10-29T10:26:40;22.70;92.10
32107;DHT22;18622;51.998;10.440;2022-10-29T10:29:16;22.80;92.20
32107;DHT22;18622;51.998;10.440;2022-10-29T10:34:20;23.00;92.10
32107;DHT22;18622;51.998;10.440;2022-10-29T10:36:51;23.00;92.10
32107;DHT22;18622;51.998;10.440;2022-10-29T10:39:33;23.00;92.50
32107;DHT22;18622;51.998;10.440;2022-10-29T10:41:59;23.10;92.10
32107;DHT22;18622;51.998;10.440;2022-10-29T10:44:28;23.10;92.00
32107;DHT22;18622;51.998;10.440;2022-10-29T10:46:59;23.10;92.10
32107;DHT22;18622;51.998;10.440;2022-10-29T10:49:29;23.10;92.30
32107;DHT22;18622;51.998;10.440;2022-10-29T10:52:00;23.20;92.30
32107;DHT22;18622;51.998;10.440;2022-10-29T10:54:33;23.40;92.10
32107;DHT22;18622;51.998;10.440;2022-10-29T11:07:38;25.50;90.00
32107;DHT22;18622;51.998;10.440;2022-10-29T11:10:09;26.20;88.50
32107;DHT22;18622;51.998;10.440;2022-10-29T11:12:53;26.80;86.30
32107;DHT22;18622;51.998;10.440;2022-10-29T11:15:29;27.40;83.50
32107;DHT22;18622;51.998;10.440;2022-10-29T11:18:01;27.70;78.80
32107;DHT22;18622;51.998;10.440;2022-10-29T11:20:36;28.00;76.90
32107;DHT22;18622;51.998;10.440;2022-10-29T11:23:28;28.90;73.80
32107;DHT22;18622;51.998;10.440;2022-10-29T11:26:24;30.10;71.20
32107;DHT22;18622;51.998;10.440;2022-10-29T11:28:50;31.10;67.10
32107;DHT22;18622;51.998;10.440;2022-10-29T11:34:18;31.20;63.20
32107;DHT22;18622;51.998;10.440;2022-10-29T11:36:49;31.30;62.30
32107;DHT22;18622;51.998;10.440;2022-10-29T11:39:33;31.80;61.30
32107;DHT22;18622;51.998;10.440;2022-10-29T11:42:01;32.40;59.90
32107;DHT22;18622;51.998;10.440;2022-10-29T11:44:31;33.50;58.50
32107;DHT22;18622;51.998;10.440;2022-10-29T11:47:09;34.50;55.70
32107;DHT22;18622;51.998;10.440;2022-10-29T12:00:17;36.10;47.70
32107;DHT22;18622;51.998;10.440;2022-10-29T12:03:15;36.30;46.00
32107;DHT22;18622;51.998;10.440;2022-10-29T12:11:34;36.10;45.50
32107;DHT22;18622;51.998;10.440;2022-10-29T12:14:19;35.00;46.30
32107;DHT22;18622;51.998;10.440;2022-10-29T12:17:04;34.10;48.10
32107;DHT22;18622;51.998;10.440;2022-10-29T12:24:52;32.10;50.90
32107;DHT22;18622;51.998;10.440;2022-10-29T12:27:32;31.60;50.60
32107;DHT22;18622;51.998;10.440;2022-10-29T12:41:12;32.40;50.50
32107;DHT22;18622;51.998;10.440;2022-10-29T12:43:39;32.40;50.30
32107;DHT22;18622;51.998;10.440;2022-10-29T12:46:34;32.10;49.80
32107;DHT22;18622;51.998;10.440;2022-10-29T12:54:37;31.00;52.60
32107;DHT22;18622;51.998;10.440;2022-10-29T12:59:43;32.70;49.00
32107;DHT22;18622;51.998;10.440;2022-10-29T13:02:26;33.50;45.60
32107;DHT22;18622;51.998;10.440;2022-10-29T13:15:57;30.30;47.80
32107;DHT22;18622;51.998;10.440;2022-10-29T13:18:29;30.80;46.80
32107;DHT22;18622;51.998;10.440;2022-10-29T13:20:56;31.50;45.90
32107;DHT22;18622;51.998;10.440;2022-10-29T13:25:57;32.20;45.20
32107;DHT22;18622;51.998;10.440;2022-10-29T13:41:39;33.20;44.70
32107;DHT22;18622;51.998;10.440;2022-10-29T13:44:21;33.70;43.00
32107;DHT22;18622;51.998;10.440;2022-10-29T13:46:58;33.30;43.40
32107;DHT22;18622;51.998;10.440;2022-10-29T13:49:33;32.40;44.70
32107;DHT22;18622;51.998;10.440;2022-10-29T13:54:52;30.20;47.30
32107;DHT22;18622;51.998;10.440;2022-10-29T14:03:32;28.10;51.50
32107;DHT22;18622;51.998;10.440;2022-10-29T14:05:21;27.70;53.30
32107;DHT22;18622;51.998;10.440;2022-10-29T14:08:09;27.20;53.90
32107;DHT22;18622;51.998;10.440;2022-10-29T14:10:34;27.00;54.90
32107;DHT22;18622;51.998;10.440;2022-10-29T14:21:21;26.10;56.60
32107;DHT22;18622;51.998;10.440;2022-10-29T14:24:04;25.90;57.80
32107;DHT22;18622;51.998;10.440;2022-10-29T14:26:38;25.80;58.20
32107;DHT22;18622;51.998;10.440;2022-10-29T14:29:17;25.60;59.30
32107;DHT22;18622;51.998;10.440;2022-10-29T14:31:43;25.50;59.10
32107;DHT22;18622;51.998;10.440;2022-10-29T14:34:27;25.30;60.00
32107;DHT22;18622;51.998;10.440;2022-10-29T14:37:05;25.20;60.10
32107;DHT22;18622;51.998;10.440;2022-10-29T14:39:40;25.00;60.70
32107;DHT22;18622;51.998;10.440;2022-10-29T14:42:26;24.80;61.40
32107;DHT22;18622;51.998;10.440;2022-10-29T14:44:53;24.70;61.60
32107;DHT22;18622;51.998;10.440;2022-10-29T14:47:30;24.60;62.50
32107;DHT22;18622;51.998;10.440;2022-10-29T14:49:56;24.60;62.40
32107;DHT22;18622;51.998;10.440;2022-10-29T14:54:59;24.60;61.90
32107;DHT22;18622;51.998;10.440;2022-10-29T14:57:30;24.40;62.30
32107;DHT22;18622;51.998;10.440;2022-10-29T15:00:05;24.40;62.40
32107;DHT22;18622;51.998;10.440;2022-10-29T15:02:39;24.20;63.00
32107;DHT22;18622;51.998;10.440;2022-10-29T15:05:23;24.00;63.40
32107;DHT22;18622;51.998;10.440;2022-10-29T15:08:13;23.80;64.00
32107;DHT22;18622;51.998;10.440;2022-10-29T15:10:23;23.50;64.70
32107;DHT22;18622;51.998;10.440;2022-10-29T15:12:52;23.20;65.80
32107;DHT22;18622;51.998;10.440;2022-10-29T15:15:22;22.90;65.90
32107;DHT22;18622;51.998;10.440;2022-10-29T15:18:16;22.80;66.20
32107;DHT22;18622;51.998;10.440;2022-10-29T15:20:46;22.60;66.90
32107;DHT22;18622;51.998;10.440;2022-10-29T15:23:19;22.40;67.00
32107;DHT22;18622;51.998;10.440;2022-10-29T15:25:50;22.30;67.10
32107;DHT22;18622;51.998;10.440;2022-10-29T15:28:21;22.30;67.70
32107;DHT22;18622;51.998;10.440;2022-10-29T15:30:49;22.20;67.90
32107;DHT22;18622;51.998;10.440;2022-10-29T15:33:20;22.10;67.80
32107;DHT22;18622;51.998;10.440;2022-10-29T15:35:53;22.10;67.90
32107;DHT22;18622;51.998;10.440;2022-10-29T15:41:33;22.00;68.10
32107;DHT22;18622;51.998;10.440;2022-10-29T15:43:58;21.90;68.10
32107;DHT22;18622;51.998;10.440;2022-10-29T15:46:34;21.90;68.10
32107;DHT22;18622;51.998;10.440;2022-10-29T15:49:03;21.80;68.30
32107;DHT22;18622;51.998;10.440;2022-10-29T15:51:31;21.80;68.40
32107;DHT22;18622;51.998;10.440;2022-10-29T15:54:00;21.70;68.80
32107;DHT22;18622;51.998;10.440;2022-10-29T15:56:30;21.60;69.00
32107;DHT22;18622;51.998;10.440;2022-10-29T15:58:59;21.50;69.10
32107;DHT22;18622;51.998;10.440;2022-10-29T16:01:26;21.40;69.50
32107;DHT22;18622;51.998;10.440;2022-10-29T16:03:54;21.30;69.90
32107;DHT22;18622;51.998;10.440;2022-10-29T16:06:22;21.10;70.30
32107;DHT22;18622;51.998;10.440;2022-10-29T16:08:52;20.90;70.70
32107;DHT22;18622;51.998;10.440;2022-10-29T16:11:23;20.80;71.10
32107;DHT22;18622;51.998;10.440;2022-10-29T16:13:53;20.70;71.60
32107;DHT22;18622;51.998;10.440;2022-10-29T16:18:58;20.60;72.30
32107;DHT22;18622;51.998;10.440;2022-10-29T16:21:26;20.60;72.40
32107;DHT22;18622;51.998;10.440;2022-10-29T16:23:54;20.50;72.60
32107;DHT22;18622;51.998;10.440;2022-10-29T16:26:23;20.50;73.00
32107;DHT22;18622;51.998;10.440;2022-10-29T16:28:51;20.40;73.30
32107;DHT22;18622;51.998;10.440;2022-10-29T16:31:27;20.40;73.90
32107;DHT22;18622;51.998;10.440;2022-10-29T16:33:57;20.30;74.20
32107;DHT22;18622;51.998;10.440;2022-10-29T16:36:25;20.20;74.50
32107;DHT22;18622;51.998;10.440;2022-10-29T16:38:53;20.20;74.50
32107;DHT22;18622;51.998;10.440;2022-10-29T16:41:21;20.10;74.90
32107;DHT22;18622;51.998;10.440;2022-10-29T16:43:48;20.00;75.10
32107;DHT22;18622;51.998;10.440;2022-10-29T16:46:16;20.00;75.50
32107;DHT22;18622;51.998;10.440;2022-10-29T16:48:44;19.90;75.70
32107;DHT22;18622;51.998;10.440;2022-10-29T16:51:12;19.90;76.00
32107;DHT22;18622;51.998;10.440;2022-10-29T16:53:40;19.80;76.40
32107;DHT22;18622;51.998;10.440;2022-10-29T16:56:08;19.70;76.80
32107;DHT22;18622;51.998;10.440;2022-10-29T16:58:35;19.70;77.00
32107;DHT22;18622;51.998;10.440;2022-10-29T17:01:05;19.70;77.60
32107;DHT22;18622;51.998;10.440;2022-10-29T17:03:33;19.60;77.70
32107;DHT22;18622;51.998;10.440;2022-10-29T17:06:06;19.50;78.10
32107;DHT22;18622;51.998;10.440;2022-10-29T17:08:35;19.50;78.80
32107;DHT22;18622;51.998;10.440;2022-10-29T17:11:05;19.60;78.60
32107;DHT22;18622;51.998;10.440;2022-10-29T17:13:35;19.60;78.50
32107;DHT22;18622;51.998;10.440;2022-10-29T17:16:08;19.60;79.10
32107;DHT22;18622;51.998;10.440;2022-10-29T17:18:35;19.60;78.60
32107;DHT22;18622;51.998;10.440;2022-10-29T17:21:03;19.60;78.70
32107;DHT22;18622;51.998;10.440;2022-10-29T17:23:32;19.60;78.80
32107;DHT22;18622;51.998;10.440;2022-10-29T17:26:00;19.70;78.80
32107;DHT22;18622;51.998;10.440;2022-10-29T17:28:27;19.70;78.90
32107;DHT22;18622;51.998;10.440;2022-10-29T17:30:55;19.70;78.80
32107;DHT22;18622;51.998;10.440;2022-10-29T17:33:23;19.80;78.90
32107;DHT22;18622;51.998;10.440;2022-10-29T17:35:59;19.80;78.60
32107;DHT22;18622;51.998;10.440;2022-10-29T17:38:27;19.80;78.60
32107;DHT22;18622;51.998;10.440;2022-10-29T17:40:55;19.80;78.50
32107;DHT22;18622;51.998;10.440;2022-10-29T17:43:23;19.80;78.60
32107;DHT22;18622;51.998;10.440;2022-10-29T17:45:51;19.80;78.70
32107;DHT22;18622;51.998;10.440;2022-10-29T17:48:19;19.80;78.80
32107;DHT22;18622;51.998;10.440;2022-10-29T17:50:56;19.80;79.00
32107;DHT22;18622;51.998;10.440;2022-10-29T17:53:24;19.70;79.10
32107;DHT22;18622;51.998;10.440;2022-10-29T17:55:56;19.60;79.10
32107;DHT22;18622;51.998;10.440;2022-10-29T17:58:22;19.60;79.70
32107;DHT22;18622;51.998;10.440;2022-10-29T18:00:50;19.60;79.60
32107;DHT22;18622;51.998;10.440;2022-10-29T18:03:18;19.40;80.20
32107;DHT22;18622;51.998;10.440;2022-10-29T18:05:46;19.20;81.10
32107;DHT22;18622;51.998;10.440;2022-10-29T18:08:14;19.00;81.90
32107;DHT22;18622;51.998;10.440;2022-10-29T18:10:41;18.80;82.60
32107;DHT22;18622;51.998;10.440;2022-10-29T18:13:09;18.50;83.50
32107;DHT22;18622;51.998;10.440;2022-10-29T18:15:38;18.30;85.00
32107;DHT22;18622;51.998;10.440;2022-10-29T18:18:06;18.10;85.70
32107;DHT22;18622;51.998;10.440;2022-10-29T18:20:33;17.90;86.20
32107;DHT22;18622;51.998;10.440;2022-10-29T18:23:01;17.70;86.90
32107;DHT22;18622;51.998;10.440;2022-10-29T18:25:29;17.60;87.70
32107;DHT22;18622;51.998;10.440;2022-10-29T18:27:57;17.50;88.30
32107;DHT22;18622;51.998;10.440;2022-10-29T18:30:25;17.40;88.80
32107;DHT22;18622;51.998;10.440;2022-10-29T18:32:52;17.30;89.50
32107;DHT22;18622;51.998;10.440;2022-10-29T18:35:20;17.20;89.90
32107;DHT22;18622;51.998;10.440;2022-10-29T18:37:48;17.10;90.20
32107;DHT22;18622;51.998;10.440;2022-10-29T18:40:16;17.00;90.60
32107;DHT22;18622;51.998;10.440;2022-10-29T18:42:44;17.00;90.90
32107;DHT22;18622;51.998;10.440;2022-10-29T18:45:11;16.90;91.00
32107;DHT22;18622;51.998;10.440;2022-10-29T18:47:39;16.90;91.30
32107;DHT22;18622;51.998;10.440;2022-10-29T18:50:07;16.80;91.40
32107;DHT22;18622;51.998;10.440;2022-10-29T18:52:36;16.90;91.70
32107;DHT22;18622;51.998;10.440;2022-10-29T18:55:04;16.80;91.80
32107;DHT22;18622;51.998;10.440;2022-10-29T18:57:32;16.80;91.90
32107;DHT22;18622;51.998;10.440;2022-10-29T19:00:00;16.70;92.40
32107;DHT22;18622;51.998;10.440;2022-10-29T19:02:28;16.60;92.90
32107;DHT22;18622;51.998;10.440;2022-10-29T19:04:56;16.60;93.10
32107;DHT22;18622;51.998;10.440;2022-10-29T19:07:23;16.60;93.50
32107;DHT22;18622;51.998;10.440;2022-10-29T19:09:51;16.60;93.70
32107;DHT22;18622;51.998;10.440;2022-10-29T19:12:19;16.60;94.00
32107;DHT22;18622;51.998;10.440;2022-10-29T19:14:47;16.60;94.20
32107;DHT22;18622;51.998;10.440;2022-10-29T19:17:15;16.60;94.40
32107;DHT22;18622;51.998;10.440;2022-10-29T19:19:42;16.70;94.80
32107;DHT22;18622;51.998;10.440;2022-10-29T19:22:10;17.00;94.70
32107;DHT22;18622;51.998;10.440;2022-10-29T19:24:38;17.20;94.20
32107;DHT22;18622;51.998;10.440;2022-10-29T19:27:06;17.60;93.80
32107;DHT22;18622;51.998;10.440;2022-10-29T19:29:34;17.80;93.30
32107;DHT22;18622;51.998;10.440;2022-10-29T19:32:01;18.00;92.80
32107;DHT22;18622;51.998;10.440;2022-10-29T19:34:29;18.20;92.20
32107;DHT22;18622;51.998;10.440;2022-10-29T19:36:57;18.40;91.80
32107;DHT22;18622;51.998;10.440;2022-10-29T19:39:25;18.60;91.50
32107;DHT22;18622;51.998;10.440;2022-10-29T19:41:53;18.70;91.30
32107;DHT22;18622;51.998;10.440;2022-10-29T19:44:21;18.80;91.10
32107;DHT22;18622;51.998;10.440;2022-10-29T19:46:48;18.90;90.80
32107;DHT22;18622;51.998;10.440;2022-10-29T19:49:16;19.00;90.60
32107;DHT22;18622;51.998;10.440;2022-10-29T19:51:44;19.10;90.40
32107;DHT22;18622;51.998;10.440;2022-10-29T19:54:12;19.10;90.10
32107;DHT22;18622;51.998;10.440;2022-10-29T19:56:40;19.20;90.00
32107;DHT22;18622;51.998;10.440;2022-10-29T19:59:08;19.30;89.80
32107;DHT22;18622;51.998;10.440;2022-10-29T20:01:36;19.30;89.70
32107;DHT22;18622;51.998;10.440;2022-10-29T20:04:04;19.30;89.60
32107;DHT22;18622;51.998;10.440;2022-10-29T20:06:32;19.20;90.10
32107;DHT22;18622;51.998;10.440;2022-10-29T20:09:00;19.00;90.10
32107;DHT22;18622;51.998;10.440;2022-10-29T20:11:28;18.80;90.30
32107;DHT22;18622;51.998;10.440;2022-10-29T20:13:56;18.60;90.50
32107;DHT22;18622;51.998;10.440;2022-10-29T20:16:23;18.40;90.90
32107;DHT22;18622;51.998;10.440;2022-10-29T20:18:51;18.20;91.10
32107;DHT22;18622;51.998;10.440;2022-10-29T20:21:19;18.00;91.50
32107;DHT22;18622;51.998;10.440;2022-10-29T20:23:47;17.80;91.80
32107;DHT22;18622;51.998;10.440;2022-10-29T20:26:15;17.70;92.10
32107;DHT22;18622;51.998;10.440;2022-10-29T20:28:43;17.60;92.40
32107;DHT22;18622;51.998;10.440;2022-10-29T20:31:22;17.50;92.70
32107;DHT22;18622;51.998;10.440;2022-10-29T20:33:47;17.40;93.30
32107;DHT22;18622;51.998;10.440;2022-10-29T20:36:11;17.20;93.30
32107;DHT22;18622;51.998;10.440;2022-10-29T20:38:39;17.10;93.50
32107;DHT22;18622;51.998;10.440;2022-10-29T20:41:07;17.10;93.90
32107;DHT22;18622;51.998;10.440;2022-10-29T20:43:35;16.90;94.00
32107;DHT22;18622;51.998;10.440;2022-10-29T20:46:03;16.90;94.30
32107;DHT22;18622;51.998;10.440;2022-10-29T20:48:31;17.00;94.10
32107;DHT22;18622;51.998;10.440;2022-10-29T20:51:01;17.30;93.70
32107;DHT22;18622;51.998;10.440;2022-10-29T20:53:29;17.70;93.00
32107;DHT22;18622;51.998;10.440;2022-10-29T20:55:57;18.00;92.40
32107;DHT22;18622;51.998;10.440;2022-10-29T20:58:25;18.20;91.50
32107;DHT22;18622;51.998;10.440;2022-10-29T21:00:53;18.40;91.00
32107;DHT22;18622;51.998;10.440;2022-10-29T21:03:21;18.70;90.60
32107;DHT22;18622;51.998;10.440;2022-10-29T21:05:48;18.80;90.20
32107;DHT22;18622;51.998;10.440;2022-10-29T21:08:16;19.00;89.40
32107;DHT22;18622;51.998;10.440;2022-10-29T21:10:44;19.10;88.80
32107;DHT22;18622;51.998;10.440;2022-10-29T21:13:12;19.10;88.50
32107;DHT22;18622;51.998;10.440;2022-10-29T21:15:40;19.20;87.80
32107;DHT22;18622;51.998;10.440;2022-10-29T21:18:07;19.30;87.10
32107;DHT22;18622;51.998;10.440;2022-10-29T21:20:35;19.30;86.60
32107;DHT22;18622;51.998;10.440;2022-10-29T21:23:03;19.40;85.70
32107;DHT22;18622;51.998;10.440;2022-10-29T21:25:31;19.50;85.40
32107;DHT22;18622;51.998;10.440;2022-10-29T21:27:59;19.50;84.30
32107;DHT22;18622;51.998;10.440;2022-10-29T21:30:26;19.60;84.10
32107;DHT22;18622;51.998;10.440;2022-10-29T21:32:54;19.70;83.60
32107;DHT22;18622;51.998;10.440;2022-10-29T21:35:22;19.70;83.00
32107;DHT22;18622;51.998;10.440;2022-10-29T21:37:50;19.70;83.40
32107;DHT22;18622;51.998;10.440;2022-10-29T21:40:18;19.70;83.50
32107;DHT22;18622;51.998;10.440;2022-10-29T21:42:45;19.50;83.70
